createdAt,value
2022-09-15T00:01:01.416Z,6.20
2022-09-15T00:02:17.424Z,10.20
2022-09-15T00:03:24.931Z,9.90
2022-09-15T00:04:31.857Z,8.50
2022-09-15T00:05:37.688Z,5.50
2022-09-15T00:06:44.689Z,7.10
2022-09-15T00:07:53.248Z,9.20
2022-09-15T00:08:59.936Z,7.50
2022-09-15T00:10:08.072Z,8.80
2022-09-15T00:11:30.728Z,7.30
2022-09-15T00:12:37.495Z,7.00
2022-09-15T00:13:44.581Z,7.60
2022-09-15T00:14:52.025Z,8.30
2022-09-15T00:15:58.422Z,6.80
2022-09-15T00:17:04.770Z,7.80
2022-09-15T00:18:10.753Z,7.10
2022-09-15T00:19:18.763Z,7.50
2022-09-15T00:20:26.132Z,10.70
2022-09-15T00:21:34.442Z,11.00
2022-09-15T00:22:40.949Z,5.60
2022-09-15T00:23:48.514Z,8.00
2022-09-15T00:24:55.508Z,8.60
2022-09-15T00:26:01.502Z,7.30
2022-09-15T00:27:07.732Z,10.30
2022-09-15T00:28:14.951Z,9.50
2022-09-15T00:29:28.099Z,11.00
2022-09-15T00:31:04.184Z,7.90
2022-09-15T00:34:08.665Z,7.40
2022-09-15T00:35:31.200Z,8.90
2022-09-15T00:36:56.332Z,6.30
2022-09-15T00:38:14.232Z,5.80
2022-09-15T00:39:39.061Z,9.60
2022-09-15T00:42:58.643Z,11.40
2022-09-15T00:44:31.264Z,13.60
2022-09-15T00:45:39.149Z,12.50
2022-09-15T00:47:09.383Z,10.40
2022-09-15T00:48:21.795Z,12.10
2022-09-15T00:49:33.403Z,12.10
2022-09-15T00:50:39.908Z,10.30
2022-09-15T00:52:21.653Z,7.80
2022-09-15T00:53:28.339Z,9.20
2022-09-15T00:55:22.519Z,7.90
2022-09-15T00:56:31.879Z,9.30
2022-09-15T00:58:05.306Z,9.40
2022-09-15T00:59:21.409Z,7.70
2022-09-15T01:00:29.705Z,7.40
2022-09-15T01:01:37.829Z,12.80
2022-09-15T01:02:46.528Z,8.40
2022-09-15T01:03:53.722Z,6.30
2022-09-15T01:05:00.104Z,7.60
2022-09-15T01:06:17.662Z,7.90
2022-09-15T01:07:31.980Z,8.70
2022-09-15T01:09:01.494Z,9.10
2022-09-15T01:12:19.259Z,8.70
2022-09-15T01:13:28.432Z,7.50
2022-09-15T01:14:39.818Z,5.50
2022-09-15T01:16:18.155Z,8.10
2022-09-15T01:17:59.129Z,8.20
2022-09-15T01:19:28.246Z,10.60
2022-09-15T01:20:59.078Z,6.20
2022-09-15T01:22:25.893Z,10.20
2022-09-15T01:23:41.895Z,7.30
2022-09-15T01:25:09.171Z,10.60
2022-09-15T01:26:53.421Z,7.10
2022-09-15T01:28:17.625Z,8.20
2022-09-15T01:29:43.211Z,9.80
2022-09-15T01:31:06.364Z,8.90
2022-09-15T01:32:54.012Z,7.50
2022-09-15T01:34:24.089Z,6.30
2022-09-15T01:36:21.494Z,6.40
2022-09-15T01:37:31.370Z,7.70
2022-09-15T01:39:04.165Z,10.70
2022-09-15T01:40:11.787Z,8.30
2022-09-15T01:41:30.005Z,9.00
2022-09-15T01:42:36.288Z,10.20
2022-09-15T01:43:53.228Z,7.10
2022-09-15T01:45:16.308Z,7.60
2022-09-15T01:46:22.980Z,8.20
2022-09-15T01:47:29.494Z,7.40
2022-09-15T01:48:35.310Z,9.50
2022-09-15T01:49:56.395Z,8.50
2022-09-15T01:51:05.147Z,7.20
2022-09-15T01:52:10.920Z,7.50
2022-09-15T01:53:22.678Z,9.80
2022-09-15T01:54:31.295Z,10.10
2022-09-15T01:55:43.001Z,10.10
2022-09-15T01:56:50.122Z,11.30
2022-09-15T01:57:56.141Z,5.80
2022-09-15T01:59:05.062Z,7.70
2022-09-15T02:00:13.914Z,8.50
2022-09-15T02:01:53.071Z,8.70
2022-09-15T02:03:01.133Z,6.30
2022-09-15T02:04:37.627Z,8.50
2022-09-15T02:05:45.559Z,9.00
2022-09-15T02:07:03.323Z,11.30
2022-09-15T02:08:48.387Z,10.20
2022-09-15T02:10:02.670Z,11.50
2022-09-15T02:11:16.294Z,6.60
2022-09-15T02:12:26.518Z,8.10
2022-09-15T02:13:49.975Z,9.80
2022-09-15T02:15:41.009Z,9.00
2022-09-15T02:19:10.643Z,7.90
2022-09-15T02:20:45.072Z,8.20
2022-09-15T02:22:40.172Z,6.40
2022-09-15T02:23:51.874Z,7.90
2022-09-15T02:25:14.493Z,6.70
2022-09-15T02:26:25.476Z,12.00
2022-09-15T02:27:33.119Z,10.50
2022-09-15T02:28:39.999Z,9.10
2022-09-15T02:29:47.934Z,8.30
2022-09-15T02:30:54.132Z,7.90
2022-09-15T02:32:03.828Z,11.80
2022-09-15T02:33:16.270Z,9.60
2022-09-15T02:34:26.805Z,9.90
2022-09-15T02:35:35.555Z,9.20
2022-09-15T02:36:42.318Z,15.40
2022-09-15T02:37:48.242Z,7.80
2022-09-15T02:38:58.662Z,9.90
2022-09-15T02:40:07.466Z,9.90
2022-09-15T02:41:15.422Z,7.50
2022-09-15T02:42:34.013Z,9.80
2022-09-15T02:43:47.138Z,8.90
2022-09-15T02:44:59.517Z,11.00
2022-09-15T02:46:08.862Z,11.60
2022-09-15T02:47:17.618Z,6.00
2022-09-15T02:48:26.024Z,11.90
2022-09-15T02:49:34.967Z,7.50
2022-09-15T02:50:46.782Z,9.20
2022-09-15T02:52:00.617Z,7.00
2022-09-15T02:53:08.769Z,6.70
2022-09-15T02:54:16.052Z,7.90
2022-09-15T02:55:30.053Z,8.50
2022-09-15T02:56:40.963Z,12.10
2022-09-15T02:57:51.133Z,10.10
2022-09-15T02:59:01.994Z,11.90
2022-09-15T03:00:13.921Z,11.50
2022-09-15T03:01:20.206Z,8.80
2022-09-15T03:02:26.973Z,11.40
2022-09-15T03:03:34.753Z,9.70
2022-09-15T03:04:41.634Z,8.30
2022-09-15T03:08:00.677Z,8.10
2022-09-15T03:09:09.032Z,14.70
2022-09-15T03:10:17.042Z,10.30
2022-09-15T03:11:25.505Z,10.00
2022-09-15T03:13:40.962Z,9.60
2022-09-15T03:14:49.512Z,9.70
2022-09-15T03:15:55.733Z,10.50
2022-09-15T03:17:04.087Z,7.60
2022-09-15T03:18:10.251Z,10.40
2022-09-15T03:19:18.087Z,8.00
2022-09-15T03:20:27.990Z,10.60
2022-09-15T03:21:34.838Z,11.10
2022-09-15T03:22:40.928Z,9.20
2022-09-15T03:23:47.617Z,11.20
2022-09-15T03:24:53.762Z,10.50
2022-09-15T03:26:02.831Z,9.20
2022-09-15T03:28:14.822Z,11.10
2022-09-15T03:29:21.021Z,10.90
2022-09-15T03:30:28.926Z,6.40
2022-09-15T03:31:35.146Z,11.40
2022-09-15T03:32:42.383Z,10.20
2022-09-15T03:33:49.823Z,15.10
2022-09-15T03:34:58.509Z,12.20
2022-09-15T03:36:07.942Z,13.60
2022-09-15T03:37:15.388Z,7.70
2022-09-15T03:38:21.868Z,8.60
2022-09-15T03:39:29.498Z,11.70
2022-09-15T03:40:39.011Z,11.00
2022-09-15T03:41:48.593Z,12.00
2022-09-15T03:42:56.463Z,15.20
2022-09-15T03:44:02.432Z,8.70
2022-09-15T03:45:08.696Z,10.10
2022-09-15T03:46:15.408Z,10.10
2022-09-15T03:47:21.335Z,9.80
2022-09-15T03:48:32.428Z,13.30
2022-09-15T03:49:39.550Z,11.10
2022-09-15T03:50:46.124Z,10.70
2022-09-15T03:51:52.625Z,9.90
2022-09-15T03:53:01.048Z,11.80
2022-09-15T03:54:07.263Z,14.00
2022-09-15T03:55:14.933Z,7.70
2022-09-15T03:56:25.612Z,10.40
2022-09-15T03:57:31.700Z,14.60
2022-09-15T03:58:42.039Z,9.90
2022-09-15T03:59:50.188Z,12.70
2022-09-15T04:00:58.735Z,9.80
2022-09-15T04:02:09.200Z,10.40
2022-09-15T04:03:19.374Z,8.10
2022-09-15T04:04:32.652Z,9.90
2022-09-15T04:05:39.727Z,11.10
2022-09-15T04:06:45.821Z,14.50
2022-09-15T04:07:52.162Z,13.70
2022-09-15T04:09:00.680Z,15.40
2022-09-15T04:10:07.110Z,10.30
2022-09-15T04:11:13.690Z,14.30
2022-09-15T04:12:20.293Z,11.00
2022-09-15T04:13:28.712Z,8.60
2022-09-15T04:14:36.453Z,9.60
2022-09-15T04:15:44.975Z,11.60
2022-09-15T04:16:52.195Z,13.20
2022-09-15T04:17:59.417Z,8.90
2022-09-15T04:19:06.221Z,10.10
2022-09-15T04:20:15.113Z,10.80
2022-09-15T04:21:24.500Z,7.70
2022-09-15T04:22:33.273Z,11.40
2022-09-15T04:23:39.864Z,9.10
2022-09-15T04:24:45.836Z,10.60
2022-09-15T04:26:03.032Z,10.00
2022-09-15T04:27:11.304Z,15.10
2022-09-15T04:28:17.954Z,13.80
2022-09-15T04:29:24.243Z,12.70
2022-09-15T04:30:30.736Z,9.90
2022-09-15T04:31:37.147Z,11.20
2022-09-15T04:32:43.375Z,9.80
2022-09-15T04:33:54.236Z,11.60
2022-09-15T04:35:01.855Z,11.60
2022-09-15T04:36:14.071Z,11.60
2022-09-15T04:37:20.892Z,13.20
2022-09-15T04:38:28.412Z,15.60
2022-09-15T04:39:34.688Z,16.10
2022-09-15T04:40:43.433Z,14.20
2022-09-15T04:41:49.875Z,14.80
2022-09-15T04:42:56.344Z,13.80
2022-09-15T04:44:02.749Z,10.80
2022-09-15T04:45:08.838Z,10.50
2022-09-15T04:46:16.079Z,11.50
2022-09-15T04:47:22.544Z,8.10
2022-09-15T04:48:28.744Z,10.00
2022-09-15T04:49:36.999Z,11.80
2022-09-15T04:50:45.200Z,12.00
2022-09-15T04:51:53.775Z,11.40
2022-09-15T04:52:59.824Z,11.20
2022-09-15T04:54:08.815Z,12.00
2022-09-15T04:55:14.678Z,9.30
2022-09-15T04:56:24.617Z,10.20
2022-09-15T04:57:31.098Z,11.20
2022-09-15T04:59:00.915Z,8.10
2022-09-15T05:00:11.273Z,9.20
2022-09-15T05:01:22.633Z,8.90
2022-09-15T05:02:30.546Z,11.10
2022-09-15T05:03:38.080Z,12.40
2022-09-15T05:04:44.704Z,10.60
2022-09-15T05:05:50.786Z,13.70
2022-09-15T05:06:57.440Z,16.40
2022-09-15T05:08:05.048Z,14.40
2022-09-15T05:09:13.849Z,10.40
2022-09-15T05:10:21.204Z,11.40
2022-09-15T05:11:27.965Z,13.10
2022-09-15T05:12:37.951Z,14.30
2022-09-15T05:13:44.240Z,10.30
2022-09-15T05:14:52.063Z,14.60
2022-09-15T05:15:58.169Z,12.00
2022-09-15T05:17:04.612Z,10.30
2022-09-15T05:18:12.231Z,12.60
2022-09-15T05:19:18.541Z,14.20
2022-09-15T05:20:26.803Z,13.80
2022-09-15T05:21:33.010Z,13.40
2022-09-15T05:22:41.942Z,15.10
2022-09-15T05:23:51.235Z,15.30
2022-09-15T05:24:57.932Z,8.30
2022-09-15T05:26:05.444Z,10.60
2022-09-15T05:27:12.481Z,10.50
2022-09-15T05:28:18.548Z,9.30
2022-09-15T05:29:24.581Z,14.50
2022-09-15T05:30:41.409Z,14.60
2022-09-15T05:31:52.648Z,13.80
2022-09-15T05:33:00.310Z,12.00
2022-09-15T05:34:07.378Z,11.30
2022-09-15T05:35:13.246Z,11.50
2022-09-15T05:36:20.782Z,14.00
2022-09-15T05:37:28.082Z,14.40
2022-09-15T05:38:35.614Z,16.40
2022-09-15T05:39:41.864Z,9.90
2022-09-15T05:40:47.996Z,13.90
2022-09-15T05:41:54.013Z,14.30
2022-09-15T05:43:01.538Z,11.90
2022-09-15T05:44:07.580Z,11.60
2022-09-15T05:45:13.519Z,13.10
2022-09-15T05:46:22.247Z,14.30
2022-09-15T05:47:30.543Z,13.20
2022-09-15T05:48:37.236Z,19.90
2022-09-15T05:49:43.779Z,14.30
2022-09-15T05:50:51.692Z,12.00
2022-09-15T05:51:57.760Z,14.60
2022-09-15T05:53:08.087Z,13.70
2022-09-15T05:54:14.093Z,13.70
2022-09-15T05:55:21.837Z,11.10
2022-09-15T05:56:27.827Z,12.30
2022-09-15T05:57:34.267Z,15.10
2022-09-15T05:58:44.049Z,11.90
2022-09-15T05:59:50.232Z,12.70
2022-09-15T06:00:56.352Z,13.70
2022-09-15T06:02:02.236Z,15.80
2022-09-15T06:03:08.769Z,16.00
2022-09-15T06:04:14.630Z,12.00
2022-09-15T06:05:20.656Z,15.10
2022-09-15T06:06:27.198Z,17.80
2022-09-15T06:07:33.362Z,12.80
2022-09-15T06:08:48.443Z,14.00
2022-09-15T06:09:56.688Z,14.40
2022-09-15T06:11:21.663Z,15.60
2022-09-15T06:12:29.051Z,13.10
2022-09-15T06:13:35.132Z,11.60
2022-09-15T06:14:44.686Z,13.40
2022-09-15T06:15:51.888Z,16.50
2022-09-15T06:16:58.256Z,15.10
2022-09-15T06:18:04.311Z,11.90
2022-09-15T06:19:10.283Z,12.70
2022-09-15T06:20:19.599Z,13.40
2022-09-15T06:22:34.314Z,13.70
2022-09-15T06:23:41.250Z,12.50
2022-09-15T06:24:47.600Z,13.80
2022-09-15T06:25:54.239Z,12.60
2022-09-15T06:27:02.427Z,7.80
2022-09-15T06:28:08.640Z,13.70
2022-09-15T06:29:14.961Z,14.50
2022-09-15T06:30:26.952Z,13.10
2022-09-15T06:31:34.102Z,12.30
2022-09-15T06:32:44.147Z,12.00
2022-09-15T06:33:54.527Z,13.90
2022-09-15T06:35:01.566Z,15.20
2022-09-15T06:36:11.485Z,16.30
2022-09-15T06:37:25.227Z,14.40
2022-09-15T06:38:34.523Z,11.00
2022-09-15T06:41:04.567Z,11.80
2022-09-15T06:42:13.792Z,15.70
2022-09-15T06:43:24.126Z,19.20
2022-09-15T06:44:30.609Z,15.70
2022-09-15T06:45:36.834Z,15.20
2022-09-15T06:46:44.051Z,12.90
2022-09-15T06:48:13.402Z,16.20
2022-09-15T06:49:23.215Z,11.00
2022-09-15T06:50:31.811Z,14.80
2022-09-15T06:51:37.977Z,12.30
2022-09-15T06:52:44.468Z,12.60
2022-09-15T06:53:51.643Z,12.00
2022-09-15T06:54:58.062Z,12.10
2022-09-15T06:56:11.086Z,14.90
2022-09-15T06:57:18.147Z,13.70
2022-09-15T06:58:25.472Z,11.70
2022-09-15T06:59:32.598Z,14.00
2022-09-15T07:00:45.540Z,10.50
2022-09-15T07:01:55.259Z,20.00
2022-09-15T07:03:01.609Z,11.00
2022-09-15T07:04:10.321Z,12.50
2022-09-15T07:05:17.493Z,15.30
2022-09-15T07:06:23.163Z,15.50
2022-09-15T07:07:29.407Z,13.80
2022-09-15T07:08:35.364Z,16.30
2022-09-15T07:09:45.088Z,12.00
2022-09-15T07:10:58.043Z,10.80
2022-09-15T07:12:04.261Z,13.50
2022-09-15T07:13:11.475Z,14.30
2022-09-15T07:14:17.466Z,14.20
2022-09-15T07:15:28.023Z,13.30
2022-09-15T07:16:34.608Z,15.60
2022-09-15T07:17:40.348Z,11.70
2022-09-15T07:18:49.647Z,14.10
2022-09-15T07:19:55.990Z,17.00
2022-09-15T07:21:02.743Z,13.30
2022-09-15T07:22:08.534Z,11.20
2022-09-15T07:23:16.030Z,14.50
2022-09-15T07:24:22.761Z,14.80
2022-09-15T07:25:28.915Z,13.20
2022-09-15T07:26:34.732Z,16.70
2022-09-15T07:27:40.649Z,15.80
2022-09-15T07:28:50.607Z,12.90
2022-09-15T07:29:56.857Z,13.40
2022-09-15T07:31:06.670Z,12.20
2022-09-15T07:32:13.635Z,16.80
2022-09-15T07:33:19.734Z,15.40
2022-09-15T07:34:26.666Z,16.50
2022-09-15T07:35:34.070Z,14.60
2022-09-15T07:36:43.164Z,14.80
2022-09-15T07:37:49.269Z,15.50
2022-09-15T07:38:56.294Z,18.90
2022-09-15T07:40:02.430Z,13.70
2022-09-15T07:41:19.645Z,16.60
2022-09-15T07:42:26.487Z,14.70
2022-09-15T07:43:32.941Z,17.10
2022-09-15T07:44:42.197Z,12.50
2022-09-15T07:45:49.562Z,17.20
2022-09-15T07:46:57.330Z,16.10
2022-09-15T07:48:03.690Z,13.00
2022-09-15T07:49:10.771Z,18.10
2022-09-15T07:50:16.740Z,13.90
2022-09-15T07:51:24.212Z,20.00
2022-09-15T07:52:31.797Z,21.60
2022-09-15T07:53:37.886Z,14.80
2022-09-15T07:54:45.339Z,15.60
2022-09-15T07:55:56.981Z,18.90
2022-09-15T07:57:02.850Z,17.60
2022-09-15T07:58:08.787Z,12.90
2022-09-15T07:59:14.933Z,16.00
2022-09-15T08:00:21.750Z,16.30
2022-09-15T08:01:28.090Z,14.00
2022-09-15T08:02:35.272Z,16.40
2022-09-15T08:03:43.356Z,15.20
2022-09-15T08:04:49.775Z,13.60
2022-09-15T08:06:04.686Z,14.80
2022-09-15T08:07:10.597Z,20.60
2022-09-15T08:08:16.447Z,17.20
2022-09-15T08:09:24.748Z,18.50
2022-09-15T08:10:31.524Z,15.00
2022-09-15T08:11:37.151Z,16.20
2022-09-15T08:12:45.641Z,16.30
2022-09-15T08:13:52.804Z,15.40
2022-09-15T08:15:00.419Z,18.80
2022-09-15T08:16:10.682Z,14.50
2022-09-15T08:17:16.932Z,13.70
2022-09-15T08:18:24.010Z,15.20
2022-09-15T08:19:34.141Z,13.10
2022-09-15T08:20:43.103Z,12.60
2022-09-15T08:21:48.869Z,14.40
2022-09-15T08:22:54.943Z,16.00
2022-09-15T08:24:01.895Z,15.10
2022-09-15T08:25:11.060Z,16.10
2022-09-15T08:26:17.225Z,16.30
2022-09-15T08:27:23.337Z,17.90
2022-09-15T08:28:29.586Z,15.00
2022-09-15T08:29:35.677Z,12.50
2022-09-15T08:30:41.385Z,14.60
2022-09-15T08:31:47.829Z,15.90
2022-09-15T08:32:54.051Z,18.80
2022-09-15T08:34:04.483Z,15.00
2022-09-15T08:35:10.676Z,20.40
2022-09-15T08:36:16.450Z,15.70
2022-09-15T08:37:23.703Z,15.60
2022-09-15T08:38:31.106Z,15.70
2022-09-15T08:39:37.207Z,16.00
2022-09-15T08:40:45.395Z,26.00
2022-09-15T08:41:52.503Z,15.40
2022-09-15T08:43:00.398Z,13.90
2022-09-15T08:44:37.313Z,13.30
2022-09-15T08:45:56.223Z,18.30
2022-09-15T08:47:12.821Z,15.80
2022-09-15T08:48:22.563Z,13.10
2022-09-15T08:49:54.903Z,13.50
2022-09-15T08:51:06.424Z,17.70
2022-09-15T08:52:22.244Z,18.10
2022-09-15T08:53:42.234Z,16.30
2022-09-15T08:54:48.562Z,14.00
2022-09-15T08:55:58.337Z,14.90
2022-09-15T08:57:03.979Z,17.70
2022-09-15T08:58:28.463Z,15.60
2022-09-15T08:59:37.408Z,15.10
2022-09-15T09:00:43.365Z,14.00
2022-09-15T09:02:19.195Z,17.60
2022-09-15T09:04:02.628Z,17.60
2022-09-15T09:05:30.427Z,14.70
2022-09-15T09:07:17.534Z,15.00
2022-09-15T09:08:32.125Z,16.10
2022-09-15T09:10:14.793Z,12.50
2022-09-15T09:11:41.844Z,14.50
2022-09-15T09:13:09.801Z,16.40
2022-09-15T09:14:19.326Z,13.10
2022-09-15T09:15:40.312Z,16.60
2022-09-15T09:17:22.637Z,15.90
2022-09-15T09:18:47.720Z,16.10
2022-09-15T09:20:05.523Z,19.20
2022-09-15T09:21:14.605Z,18.00
2022-09-15T09:22:24.233Z,18.20
2022-09-15T09:23:34.669Z,15.80
2022-09-15T09:24:40.552Z,12.80
2022-09-15T09:25:46.955Z,12.60
2022-09-15T09:26:54.951Z,13.90
2022-09-15T09:28:00.956Z,15.60
2022-09-15T09:29:32.607Z,14.70
2022-09-15T09:30:38.626Z,19.30
2022-09-15T09:31:47.871Z,11.00
2022-09-15T09:33:31.455Z,14.30
2022-09-15T09:34:43.169Z,17.80
2022-09-15T09:35:52.802Z,17.00
2022-09-15T09:37:02.938Z,16.80
2022-09-15T09:38:12.322Z,18.50
2022-09-15T09:39:18.513Z,16.10
2022-09-15T09:40:25.531Z,15.30
2022-09-15T09:41:37.538Z,15.30
2022-09-15T09:42:43.635Z,16.00
2022-09-15T09:43:50.254Z,13.80
2022-09-15T09:44:56.246Z,13.70
2022-09-15T09:46:02.764Z,14.60
2022-09-15T09:47:08.424Z,15.60
2022-09-15T09:48:24.793Z,13.80
2022-09-15T09:49:34.949Z,11.70
2022-09-15T09:50:45.996Z,12.80
2022-09-15T09:52:02.868Z,15.00
2022-09-15T09:53:33.699Z,16.10
2022-09-15T09:54:40.022Z,15.30
2022-09-15T09:55:47.199Z,14.90
2022-09-15T09:56:54.376Z,12.40
2022-09-15T09:58:16.155Z,13.70
2022-09-15T09:59:47.714Z,16.00
2022-09-15T10:00:56.817Z,16.10
2022-09-15T10:02:27.473Z,12.40
2022-09-15T10:03:36.090Z,16.60
2022-09-15T10:04:55.493Z,15.40
2022-09-15T10:06:09.056Z,17.50
2022-09-15T10:07:16.771Z,17.50
2022-09-15T10:08:24.308Z,16.50
2022-09-15T10:09:33.422Z,14.50
2022-09-15T10:10:40.316Z,13.70
2022-09-15T10:12:00.143Z,16.10
2022-09-15T10:13:06.354Z,14.60
2022-09-15T10:14:24.083Z,15.70
2022-09-15T10:15:34.734Z,14.20
2022-09-15T10:16:42.277Z,15.20
2022-09-15T10:17:51.250Z,15.80
2022-09-15T10:18:57.595Z,17.40
2022-09-15T10:20:04.248Z,16.50
2022-09-15T10:21:10.731Z,11.40
2022-09-15T10:22:27.575Z,12.80
2022-09-15T10:23:37.416Z,15.10
2022-09-15T10:24:46.030Z,11.40
2022-09-15T10:25:59.484Z,15.50
2022-09-15T10:27:10.342Z,12.00
2022-09-15T10:28:20.547Z,13.70
2022-09-15T10:29:26.562Z,12.50
2022-09-15T10:30:32.680Z,15.40
2022-09-15T10:31:40.299Z,17.00
2022-09-15T10:32:46.638Z,10.70
2022-09-15T10:33:53.522Z,11.90
2022-09-15T10:35:14.961Z,14.10
2022-09-15T10:36:29.383Z,16.10
2022-09-15T10:37:45.742Z,13.20
2022-09-15T10:39:02.706Z,12.90
2022-09-15T10:40:30.355Z,13.60
2022-09-15T10:41:41.916Z,13.50
2022-09-15T10:42:50.815Z,13.40
2022-09-15T10:44:18.724Z,14.50
2022-09-15T10:45:41.537Z,14.00
2022-09-15T10:46:56.406Z,12.70
2022-09-15T10:48:35.559Z,13.20
2022-09-15T10:50:27.270Z,15.20
2022-09-15T10:51:51.463Z,13.30
2022-09-15T10:53:22.232Z,13.20
2022-09-15T10:55:08.548Z,12.30
2022-09-15T10:56:38.669Z,12.30
2022-09-15T10:58:21.889Z,16.00
2022-09-15T10:59:44.489Z,12.40
2022-09-15T11:01:21.030Z,15.00
2022-09-15T11:02:45.838Z,13.30
2022-09-15T11:04:23.365Z,11.40
2022-09-15T11:05:36.221Z,13.70
2022-09-15T11:07:03.815Z,13.10
2022-09-15T11:08:58.206Z,15.10
2022-09-15T11:10:31.803Z,16.40
2022-09-15T11:11:58.224Z,13.30
2022-09-15T11:13:30.219Z,13.90
2022-09-15T11:15:10.667Z,12.50
2022-09-15T11:17:01.245Z,12.70
2022-09-15T11:18:32.379Z,14.30
2022-09-15T11:20:04.211Z,12.10
2022-09-15T11:21:10.784Z,12.60
2022-09-15T11:22:23.778Z,11.00
2022-09-15T11:23:44.637Z,14.70
2022-09-15T11:25:01.504Z,16.30
2022-09-15T11:26:14.149Z,15.10
2022-09-15T11:27:45.639Z,12.30
2022-09-15T11:28:58.272Z,13.80
2022-09-15T11:30:18.121Z,14.40
2022-09-15T11:31:28.781Z,15.50
2022-09-15T11:33:15.781Z,16.40
2022-09-15T11:34:43.627Z,14.80
2022-09-15T11:36:03.377Z,11.80
2022-09-15T11:37:15.697Z,14.50
2022-09-15T11:38:28.728Z,14.40
2022-09-15T11:39:46.395Z,11.60
2022-09-15T11:41:07.076Z,15.90
2022-09-15T11:42:41.131Z,13.60
2022-09-15T11:44:16.696Z,12.80
2022-09-15T11:45:37.469Z,13.00
2022-09-15T11:47:20.865Z,13.50
2022-09-15T11:48:32.878Z,13.70
2022-09-15T11:50:03.099Z,11.90
2022-09-15T11:51:09.238Z,15.10
2022-09-15T11:52:30.499Z,14.00
2022-09-15T11:53:55.542Z,13.60
2022-09-15T11:55:16.793Z,15.30
2022-09-15T11:56:37.947Z,15.10
2022-09-15T11:57:47.408Z,9.30
2022-09-15T11:59:19.441Z,13.30
2022-09-15T12:00:25.799Z,19.10
2022-09-15T12:02:02.949Z,14.90
2022-09-15T12:03:46.242Z,11.60
2022-09-15T12:05:15.195Z,11.80
2022-09-15T12:07:02.510Z,15.60
2022-09-15T12:08:38.513Z,9.70
2022-09-15T12:09:44.807Z,11.10
2022-09-15T12:10:53.040Z,13.40
2022-09-15T12:12:02.433Z,12.50
2022-09-15T12:14:27.378Z,12.30
2022-09-15T12:15:33.233Z,12.70
2022-09-15T12:16:39.598Z,11.80
2022-09-15T12:17:47.709Z,13.00
2022-09-15T12:18:57.979Z,12.60
2022-09-15T12:20:07.787Z,13.30
2022-09-15T12:22:44.293Z,11.30
2022-09-15T12:24:08.869Z,17.30
2022-09-15T12:25:23.614Z,14.70
2022-09-15T12:26:30.627Z,13.30
2022-09-15T12:27:36.776Z,16.60
2022-09-15T12:29:04.187Z,14.40
2022-09-15T12:30:31.903Z,11.70
2022-09-15T12:31:40.796Z,14.90
2022-09-15T12:32:46.797Z,15.90
2022-09-15T12:34:23.132Z,11.20
2022-09-15T12:35:33.853Z,12.70
2022-09-15T12:36:44.078Z,14.60
2022-09-15T12:37:54.502Z,14.70
2022-09-15T12:39:01.132Z,13.60
2022-09-15T12:40:13.000Z,11.70
2022-09-15T12:41:19.592Z,14.60
2022-09-15T12:42:31.872Z,13.60
2022-09-15T12:43:38.103Z,16.30
2022-09-15T12:44:51.765Z,14.80
2022-09-15T12:46:01.934Z,16.20
2022-09-15T12:47:08.863Z,17.10
2022-09-15T12:48:23.594Z,13.30
2022-09-15T12:49:37.199Z,12.10
2022-09-15T12:50:44.627Z,18.10
2022-09-15T12:51:51.008Z,15.10
2022-09-15T12:52:59.356Z,13.70
2022-09-15T12:54:08.470Z,15.40
2022-09-15T12:55:28.260Z,15.70
2022-09-15T12:56:35.063Z,30.50
2022-09-15T12:57:42.656Z,13.70
2022-09-15T12:58:50.339Z,15.00
2022-09-15T13:00:34.085Z,15.50
2022-09-15T13:01:48.059Z,12.80
2022-09-15T13:02:53.878Z,15.60
2022-09-15T13:04:00.516Z,10.40
2022-09-15T13:05:06.432Z,14.10
2022-09-15T13:06:30.185Z,21.20
2022-09-15T13:07:37.286Z,12.70
2022-09-15T13:09:05.797Z,11.50
2022-09-15T13:10:16.091Z,11.80
2022-09-15T13:12:55.942Z,14.10
2022-09-15T13:14:02.449Z,14.30
2022-09-15T13:15:09.223Z,10.40
2022-09-15T13:16:31.149Z,11.20
2022-09-15T13:17:37.894Z,12.80
2022-09-15T13:18:45.257Z,16.40
2022-09-15T13:19:58.542Z,14.10
2022-09-15T13:21:05.930Z,11.70
2022-09-15T13:22:31.007Z,16.80
2022-09-15T13:23:41.757Z,14.80
2022-09-15T13:25:14.549Z,10.30
2022-09-15T13:26:25.256Z,14.80
2022-09-15T13:27:54.050Z,14.80
2022-09-15T13:29:01.986Z,13.40
2022-09-15T13:30:25.866Z,11.30
2022-09-15T13:32:06.054Z,13.90
2022-09-15T13:35:20.850Z,11.60
2022-09-15T13:38:55.617Z,14.40
2022-09-15T13:41:28.858Z,18.50
2022-09-15T13:42:58.552Z,16.70
2022-09-15T13:44:42.053Z,17.80
2022-09-15T13:46:18.111Z,15.10
2022-09-15T13:48:01.764Z,18.60
2022-09-15T13:49:33.926Z,15.40
2022-09-15T13:50:56.721Z,15.70
2022-09-15T13:52:23.379Z,18.50
2022-09-15T13:54:04.974Z,14.60
2022-09-15T13:55:28.309Z,20.40
2022-09-15T13:56:46.057Z,14.30
2022-09-15T13:59:30.406Z,12.60
2022-09-15T14:00:46.804Z,18.50
2022-09-15T14:01:56.028Z,14.90
2022-09-15T14:03:04.599Z,13.70
2022-09-15T14:04:30.951Z,14.90
2022-09-15T14:05:37.015Z,13.60
2022-09-15T14:06:44.637Z,12.30
2022-09-15T14:08:05.384Z,17.60
2022-09-15T14:09:28.248Z,16.40
2022-09-15T14:10:37.167Z,17.30
2022-09-15T14:11:44.766Z,20.30
2022-09-15T14:12:53.862Z,13.60
2022-09-15T14:14:04.543Z,17.60
2022-09-15T14:15:10.891Z,17.10
2022-09-15T14:16:30.000Z,15.20
2022-09-15T14:17:44.921Z,15.00
2022-09-15T14:18:52.491Z,12.50
2022-09-15T14:19:59.514Z,14.30
2022-09-15T14:21:07.170Z,15.10
2022-09-15T14:22:31.484Z,13.00
2022-09-15T14:23:48.901Z,12.70
2022-09-15T14:24:55.155Z,14.80
2022-09-15T14:26:01.049Z,10.90
2022-09-15T14:27:09.893Z,12.10
2022-09-15T14:28:22.497Z,13.30
2022-09-15T14:29:28.852Z,15.80
2022-09-15T14:30:38.504Z,13.90
2022-09-15T14:31:44.858Z,15.60
2022-09-15T14:32:55.369Z,14.30
2022-09-15T14:34:07.014Z,14.00
2022-09-15T14:35:19.770Z,16.70
2022-09-15T14:36:34.201Z,10.00
2022-09-15T14:37:39.974Z,12.70
2022-09-15T14:38:45.806Z,10.10
2022-09-15T14:39:56.985Z,14.20
2022-09-15T14:41:04.010Z,13.80
2022-09-15T14:42:23.081Z,17.80
2022-09-15T14:43:42.115Z,15.50
2022-09-15T14:46:22.393Z,15.90
2022-09-15T14:47:28.803Z,16.20
2022-09-15T14:48:35.253Z,17.20
2022-09-15T14:49:40.976Z,12.50
2022-09-15T14:50:55.845Z,13.30
2022-09-15T14:52:02.131Z,14.30
2022-09-15T14:53:16.920Z,11.20
2022-09-15T14:54:35.567Z,14.00
2022-09-15T14:56:08.203Z,14.30
2022-09-15T14:57:14.838Z,13.90
2022-09-15T14:58:22.110Z,15.80
2022-09-15T14:59:54.077Z,16.10
2022-09-15T15:01:24.431Z,15.70
2022-09-15T15:03:04.734Z,13.80
2022-09-15T15:04:25.142Z,16.10
2022-09-15T15:05:37.034Z,13.20
2022-09-15T15:06:52.989Z,13.40
2022-09-15T15:07:59.905Z,12.50
2022-09-15T15:09:13.886Z,13.30
2022-09-15T15:10:35.603Z,16.20
2022-09-15T15:11:44.069Z,14.50
2022-09-15T15:12:55.232Z,12.40
2022-09-15T15:14:01.341Z,13.10
2022-09-15T15:15:08.118Z,14.60
2022-09-15T15:16:31.411Z,13.50
2022-09-15T15:17:43.655Z,11.10
2022-09-15T15:18:51.959Z,15.00
2022-09-15T15:20:15.109Z,11.80
2022-09-15T15:21:32.610Z,12.10
2022-09-15T15:22:39.522Z,14.40
2022-09-15T15:23:48.855Z,18.10
2022-09-15T15:26:47.908Z,15.40
2022-09-15T15:27:58.447Z,15.00
2022-09-15T15:29:04.782Z,15.50
2022-09-15T15:30:32.187Z,14.10
2022-09-15T15:31:40.744Z,13.30
2022-09-15T15:32:46.870Z,14.80
2022-09-15T15:33:57.468Z,12.40
2022-09-15T15:35:03.924Z,17.00
2022-09-15T15:36:10.119Z,17.30
2022-09-15T15:37:26.135Z,16.80
2022-09-15T15:38:46.349Z,17.60
2022-09-15T15:39:56.200Z,17.00
2022-09-15T15:41:03.919Z,14.80
2022-09-15T15:42:16.232Z,18.10
2022-09-15T15:43:26.028Z,13.40
2022-09-15T15:44:32.330Z,19.70
2022-09-15T15:45:38.739Z,14.50
2022-09-15T15:46:52.849Z,13.40
2022-09-15T15:47:58.861Z,11.90
2022-09-15T15:49:10.604Z,18.80
2022-09-15T15:50:22.459Z,14.70
2022-09-15T15:51:32.218Z,13.90
2022-09-15T15:52:39.061Z,14.90
2022-09-15T15:53:45.449Z,17.80
2022-09-15T15:54:52.534Z,15.70
2022-09-15T15:56:01.974Z,17.50
2022-09-15T15:58:33.291Z,16.40
2022-09-15T15:59:42.086Z,19.10
2022-09-15T16:00:52.299Z,17.40
2022-09-15T16:01:58.807Z,14.90
2022-09-15T16:03:05.953Z,13.00
2022-09-15T16:04:13.526Z,14.70
2022-09-15T16:05:29.741Z,14.90
2022-09-15T16:06:37.184Z,15.90
2022-09-15T16:07:44.838Z,15.10
2022-09-15T16:09:01.543Z,15.60
2022-09-15T16:10:09.248Z,11.10
2022-09-15T16:11:16.715Z,13.30
2022-09-15T16:12:22.334Z,17.60
2022-09-15T16:13:28.355Z,15.80
2022-09-15T16:14:36.411Z,14.30
2022-09-15T16:15:44.478Z,12.40
2022-09-15T16:16:52.844Z,14.00